createdAt,value
2019-04-21T00:01:42.011Z,6.87
2019-04-21T00:04:28.763Z,5.97
2019-04-21T00:07:04.423Z,4.90
2019-04-21T00:09:33.681Z,4.92
2019-04-21T00:12:01.486Z,5.03
2019-04-21T00:14:26.360Z,4.45
2019-04-21T00:16:54.190Z,4.35
2019-04-21T00:19:24.889Z,4.15
2019-04-21T00:22:04.917Z,5.03
2019-04-21T00:24:33.689Z,5.72
2019-04-21T00:27:13.870Z,5.90
2019-04-21T00:29:45.457Z,6.03
2019-04-21T00:32:10.483Z,6.58
2019-04-21T00:34:28.142Z,7.15
2019-04-21T00:37:12.158Z,6.50
2019-04-21T00:42:18.217Z,5.28
2019-04-21T00:44:51.095Z,4.67
2019-04-21T00:47:27.903Z,4.62
2019-04-21T00:49:57.807Z,4.22
2019-04-21T00:55:32.495Z,4.08
2019-04-21T00:58:02.020Z,4.45
2019-04-21T01:00:32.420Z,4.17
2019-04-21T01:03:13.114Z,4.30
2019-04-21T01:05:42.724Z,3.80
2019-04-21T01:08:11.442Z,3.70
2019-04-21T01:10:33.216Z,3.67
2019-04-21T01:13:20.408Z,3.60
2019-04-21T01:18:09.021Z,4.25
2019-04-21T01:20:25.176Z,3.47
2019-04-21T01:22:58.217Z,3.90
2019-04-21T01:25:41.525Z,3.20
2019-04-21T01:28:27.513Z,3.35
2019-04-21T01:30:56.847Z,3.12
2019-04-21T01:33:33.436Z,2.98
2019-04-21T01:35:59.339Z,3.22
2019-04-21T01:38:36.774Z,3.12
2019-04-21T01:41:21.768Z,3.00
2019-04-21T01:43:31.530Z,3.20
2019-04-21T01:46:00.663Z,3.67
2019-04-21T01:48:30.661Z,2.90
2019-04-21T01:51:03.889Z,2.90
2019-04-21T01:53:43.126Z,2.92
2019-04-21T01:56:17.332Z,2.80
2019-04-21T01:58:39.753Z,3.72
2019-04-21T02:01:27.462Z,3.87
2019-04-21T02:04:12.587Z,3.83
2019-04-21T02:06:29.099Z,4.05
2019-04-21T02:08:56.280Z,3.62
2019-04-21T02:11:31.260Z,3.60
2019-04-21T02:14:05.396Z,3.80
2019-04-21T02:16:28.149Z,3.75
2019-04-21T02:18:59.131Z,3.37
2019-04-21T02:21:36.552Z,3.27
2019-04-21T02:24:07.084Z,3.17
2019-04-21T02:26:37.525Z,3.27
2019-04-21T02:29:08.055Z,3.20
2019-04-21T02:32:01.686Z,3.62
2019-04-21T02:36:53.491Z,2.70
2019-04-21T02:39:35.525Z,2.83
2019-04-21T02:41:51.682Z,3.08
2019-04-21T02:44:18.460Z,2.95
2019-04-21T02:52:01.560Z,2.62
2019-04-21T02:57:04.850Z,5.90
2019-04-21T03:02:14.519Z,3.25
2019-04-21T03:04:36.220Z,3.40
2019-04-21T03:09:51.099Z,4.33
2019-04-21T03:12:19.616Z,4.20
2019-04-21T03:17:32.459Z,4.20
2019-04-21T03:27:40.230Z,4.15
2019-04-21T03:30:29.389Z,4.42
2019-04-21T03:37:37.205Z,5.42
2019-04-21T03:39:59.725Z,4.80
2019-04-21T03:42:33.850Z,5.08
2019-04-21T03:45:03.693Z,5.12
2019-04-21T03:47:30.572Z,5.72
2019-04-21T03:52:42.577Z,6.28
2019-04-21T03:55:51.448Z,6.00
2019-04-21T04:03:28.138Z,5.12
2019-04-21T04:06:01.865Z,5.65
2019-04-21T04:11:12.284Z,5.40
2019-04-21T04:13:53.312Z,5.12
2019-04-21T04:16:05.944Z,5.25
2019-04-21T04:18:52.767Z,5.17
2019-04-21T04:21:12.219Z,4.75
2019-04-21T04:23:45.225Z,5.60
2019-04-21T04:28:49.868Z,5.42
2019-04-21T04:33:48.837Z,4.97
2019-04-21T04:36:27.975Z,5.22
2019-04-21T04:41:33.640Z,5.22
2019-04-21T04:46:28.300Z,4.97
2019-04-21T04:49:01.793Z,5.28
2019-04-21T04:51:48.301Z,5.20
2019-04-21T04:54:17.429Z,5.45
2019-04-21T04:56:50.172Z,5.72
2019-04-21T05:01:40.960Z,4.97
2019-04-21T05:04:30.409Z,5.50
2019-04-21T05:09:17.953Z,4.62
2019-04-21T05:14:23.015Z,5.17
2019-04-21T05:16:52.949Z,5.45
2019-04-21T05:19:20.951Z,5.62
2019-04-21T05:21:40.492Z,5.17
2019-04-21T05:24:00.016Z,5.20
2019-04-21T05:26:32.781Z,5.00
2019-04-21T05:28:58.832Z,5.10
2019-04-21T05:31:46.382Z,6.60
2019-04-21T05:34:18.853Z,5.40
2019-04-21T05:36:44.640Z,5.83
2019-04-21T05:39:36.261Z,5.30
2019-04-21T05:41:54.189Z,4.28
2019-04-21T05:47:20.168Z,4.30
2019-04-21T05:49:45.637Z,4.28
2019-04-21T05:52:14.553Z,4.70
2019-04-21T05:54:59.646Z,4.40
2019-04-21T05:57:20.633Z,4.53
2019-04-21T05:59:53.342Z,4.47
2019-04-21T06:02:43.770Z,4.30
2019-04-21T06:07:28.771Z,4.58
2019-04-21T06:12:38.200Z,4.40
2019-04-21T06:15:10.765Z,5.12
2019-04-21T06:17:46.019Z,4.80
2019-04-21T06:20:10.483Z,4.75
2019-04-21T06:22:40.335Z,4.83
2019-04-21T06:27:49.529Z,5.05
2019-04-21T06:30:19.330Z,4.42
2019-04-21T06:32:49.166Z,4.28
2019-04-21T06:35:48.790Z,4.58
2019-04-21T06:40:40.023Z,4.90
2019-04-21T06:43:17.992Z,4.83
2019-04-21T06:45:42.637Z,5.15
2019-04-21T06:48:11.225Z,4.95
2019-04-21T06:50:46.167Z,4.85
2019-04-21T06:53:11.906Z,4.97
2019-04-21T06:55:49.829Z,4.72
2019-04-21T06:58:10.138Z,9.63
2019-04-21T07:00:42.844Z,5.22
2019-04-21T07:03:19.327Z,4.62
2019-04-21T07:05:52.463Z,4.58
2019-04-21T07:08:31.518Z,4.58
2019-04-21T07:10:54.613Z,4.42
2019-04-21T07:13:19.194Z,4.85
2019-04-21T07:15:49.930Z,4.37
2019-04-21T07:18:25.392Z,4.50
2019-04-21T07:20:53.163Z,4.85
2019-04-21T07:23:31.711Z,4.55
2019-04-21T07:26:00.703Z,4.40
2019-04-21T07:28:25.784Z,4.17
2019-04-21T07:31:03.739Z,5.22
2019-04-21T07:33:50.888Z,4.60
2019-04-21T07:35:56.907Z,4.83
2019-04-21T07:38:27.491Z,5.37
2019-04-21T07:40:56.730Z,5.05
2019-04-21T07:43:30.199Z,4.72
2019-04-21T07:45:58.602Z,4.25
2019-04-21T07:48:38.126Z,4.70
2019-04-21T07:51:11.145Z,5.17
2019-04-21T07:53:52.579Z,4.62
2019-04-21T07:56:06.482Z,4.92
2019-04-21T07:58:54.083Z,5.62
2019-04-21T08:01:22.497Z,5.00
2019-04-21T08:03:50.663Z,5.30
2019-04-21T08:06:32.004Z,4.83
2019-04-21T08:08:54.493Z,5.08
2019-04-21T08:11:28.395Z,4.83
2019-04-21T08:13:57.889Z,4.22
2019-04-21T08:16:30.243Z,4.87
2019-04-21T08:18:59.759Z,5.07
2019-04-21T08:21:37.124Z,5.00
2019-04-21T08:24:00.270Z,4.55
2019-04-21T08:26:35.954Z,4.83
2019-04-21T08:31:50.008Z,4.83
2019-04-21T08:34:17.837Z,4.55
2019-04-21T08:36:40.512Z,4.40
2019-04-21T08:39:13.480Z,3.90
2019-04-21T08:41:38.916Z,3.92
2019-04-21T08:44:10.608Z,3.72
2019-04-21T08:46:49.125Z,4.05
2019-04-21T08:49:19.220Z,4.00
2019-04-21T08:51:50.695Z,4.15
2019-04-21T08:54:16.511Z,3.92
2019-04-21T08:57:06.152Z,3.90
2019-04-21T08:59:30.919Z,3.83
2019-04-21T09:02:10.846Z,3.98
2019-04-21T09:04:37.375Z,4.28
2019-04-21T09:07:28.425Z,3.55
2019-04-21T09:09:42.677Z,4.05
2019-04-21T09:12:10.805Z,4.25
2019-04-21T09:14:41.477Z,4.10
2019-04-21T09:17:10.495Z,4.10
2019-04-21T09:19:51.430Z,4.10
2019-04-21T09:22:10.920Z,3.98
2019-04-21T09:24:46.956Z,3.77
2019-04-21T09:27:18.661Z,3.85
2019-04-21T09:29:36.736Z,4.22
2019-04-21T09:32:01.920Z,5.42
2019-04-21T09:34:36.944Z,6.58
2019-04-21T09:37:16.451Z,3.87
2019-04-21T09:39:33.724Z,4.10
2019-04-21T09:42:04.704Z,4.53
2019-04-21T09:44:38.618Z,4.72
2019-04-21T09:47:06.966Z,4.92
2019-04-21T09:49:36.030Z,4.12
2019-04-21T09:52:12.979Z,5.00
2019-04-21T09:54:49.401Z,4.15
2019-04-21T09:57:14.536Z,4.25
2019-04-21T09:59:42.359Z,3.70
2019-04-21T10:02:30.457Z,3.80
2019-04-21T10:04:48.357Z,3.60
2019-04-21T10:07:26.407Z,3.58
2019-04-21T10:09:52.747Z,4.20
2019-04-21T10:14:51.750Z,4.22
2019-04-21T10:17:43.946Z,3.40
2019-04-21T10:20:13.807Z,3.85
2019-04-21T10:22:43.005Z,3.72
2019-04-21T10:25:12.645Z,4.08
2019-04-21T10:27:43.076Z,3.95
2019-04-21T10:30:16.943Z,4.00
2019-04-21T10:35:20.924Z,5.05
2019-04-21T10:38:01.248Z,4.05
2019-04-21T10:40:21.446Z,4.40
2019-04-21T10:42:50.416Z,4.83
2019-04-21T10:45:23.084Z,4.60
2019-04-21T10:47:52.804Z,6.20
2019-04-21T10:50:24.649Z,5.15
2019-04-21T10:53:00.907Z,13.20
2019-04-21T10:55:53.522Z,5.55
2019-04-21T10:58:14.228Z,4.30
2019-04-21T11:00:48.432Z,4.15
2019-04-21T11:03:41.408Z,4.83
2019-04-21T11:06:14.481Z,4.50
2019-04-21T11:08:47.575Z,4.90
2019-04-21T11:11:14.670Z,4.67
2019-04-21T11:13:44.382Z,5.30
2019-04-21T11:16:14.967Z,5.58
2019-04-21T11:18:44.288Z,5.25
2019-04-21T11:21:13.432Z,5.40
2019-04-21T11:23:43.864Z,5.80
2019-04-21T11:26:13.944Z,5.67
2019-04-21T11:28:43.329Z,6.28
2019-04-21T11:31:13.286Z,7.10
2019-04-21T11:33:45.316Z,6.92
2019-04-21T11:36:17.387Z,7.70
2019-04-21T11:39:06.187Z,5.60
2019-04-21T11:41:27.774Z,6.92
2019-04-21T11:43:59.213Z,6.08
2019-04-21T11:46:30.666Z,7.67
2019-04-21T11:49:00.119Z,9.10
2019-04-21T11:51:29.248Z,6.67
2019-04-21T11:53:59.172Z,6.70
2019-04-21T11:56:28.564Z,7.83
2019-04-21T11:58:57.842Z,7.92
2019-04-21T12:01:29.828Z,9.50
2019-04-21T12:03:59.955Z,6.58
2019-04-21T12:06:37.231Z,8.53
2019-04-21T12:09:04.902Z,10.53
2019-04-21T12:11:35.662Z,10.25
2019-04-21T12:14:05.912Z,11.03
2019-04-21T12:16:35.257Z,8.08
2019-04-21T12:19:05.129Z,5.65
2019-04-21T12:21:46.688Z,6.47
2019-04-21T12:24:05.304Z,7.28
2019-04-21T12:26:34.389Z,5.92
2019-04-21T12:29:03.911Z,6.20
2019-04-21T12:31:51.718Z,5.40
2019-04-21T12:34:21.887Z,6.22
2019-04-21T12:36:52.806Z,5.97
2019-04-21T12:39:23.049Z,6.03
2019-04-21T12:41:52.307Z,6.10
2019-04-21T12:44:22.491Z,4.90
2019-04-21T12:46:51.944Z,4.95
2019-04-21T12:49:22.076Z,4.47
2019-04-21T12:51:51.526Z,5.12
2019-04-21T12:54:21.703Z,5.25
2019-04-21T12:56:53.786Z,5.22
2019-04-21T12:59:23.032Z,5.08
2019-04-21T13:01:53.091Z,4.60
2019-04-21T13:04:22.307Z,5.67
2019-04-21T13:06:52.571Z,4.08
2019-04-21T13:09:22.223Z,4.78
2019-04-21T13:11:51.520Z,4.58
2019-04-21T13:14:21.967Z,5.03
2019-04-21T13:16:51.756Z,4.72
2019-04-21T13:19:21.066Z,4.87
2019-04-21T13:21:50.324Z,5.33
2019-04-21T13:24:19.947Z,5.17
2019-04-21T13:26:55.575Z,5.12
2019-04-21T13:29:21.289Z,4.85
2019-04-21T13:31:52.138Z,5.00
2019-04-21T13:34:22.171Z,4.70
2019-04-21T13:36:51.789Z,5.00
2019-04-21T13:39:52.240Z,5.62
2019-04-21T13:42:07.582Z,4.25
2019-04-21T13:44:28.973Z,4.08
2019-04-21T13:46:58.758Z,4.12
2019-04-21T13:49:29.577Z,4.40
2019-04-21T13:52:02.535Z,4.12
2019-04-21T13:54:35.781Z,4.12
2019-04-21T13:57:05.005Z,3.95
2019-04-21T13:59:34.440Z,4.65
2019-04-21T14:02:04.769Z,4.45
2019-04-21T14:04:35.528Z,4.10
2019-04-21T14:07:05.951Z,4.35
2019-04-21T14:09:47.657Z,4.10
2019-04-21T14:12:09.559Z,4.70
2019-04-21T14:14:38.997Z,4.00
2019-04-21T14:17:08.988Z,3.98
2019-04-21T14:19:39.328Z,3.87
2019-04-21T14:22:10.306Z,4.37
2019-04-21T14:24:39.366Z,4.22
2019-04-21T14:27:08.452Z,4.10
2019-04-21T14:29:37.740Z,3.95
2019-04-21T14:32:08.308Z,3.52
2019-04-21T14:34:41.975Z,4.17
2019-04-21T14:39:53.859Z,3.95
2019-04-21T14:42:13.964Z,4.28
2019-04-21T14:44:45.098Z,3.42
2019-04-21T14:47:33.364Z,4.30
2019-04-21T14:50:22.138Z,4.67
2019-04-21T14:53:11.856Z,4.28
2019-04-21T14:55:43.506Z,4.28
2019-04-21T14:58:14.745Z,3.50
2019-04-21T15:00:51.016Z,3.22
2019-04-21T15:03:21.647Z,3.77
2019-04-21T15:05:51.563Z,4.50
2019-04-21T15:08:21.549Z,3.80
2019-04-21T15:10:50.818Z,3.62
2019-04-21T15:13:20.032Z,3.75
2019-04-21T15:15:49.870Z,4.17
2019-04-21T15:18:21.039Z,3.72
2019-04-21T15:20:50.614Z,3.83
2019-04-21T15:23:20.432Z,3.92
2019-04-21T15:25:50.610Z,3.50
2019-04-21T15:28:20.098Z,3.40
2019-04-21T15:30:50.504Z,3.80
2019-04-21T15:33:20.326Z,4.22
2019-04-21T15:35:49.562Z,3.75
2019-04-21T15:38:20.029Z,4.75
2019-04-21T15:40:55.469Z,4.97
2019-04-21T15:43:20.346Z,6.00
2019-04-21T15:45:50.749Z,6.58
2019-04-21T15:48:20.143Z,8.40
2019-04-21T15:50:50.339Z,9.05
2019-04-21T15:53:21.670Z,9.90
2019-04-21T15:55:52.872Z,9.48
2019-04-21T15:58:40.933Z,10.05
2019-04-21T16:01:12.344Z,10.65
2019-04-21T16:03:44.836Z,9.25
2019-04-21T16:06:14.965Z,9.05
2019-04-21T16:08:47.635Z,7.92
2019-04-21T16:11:15.792Z,7.42
2019-04-21T16:13:49.823Z,7.70
2019-04-21T16:16:24.898Z,7.53
2019-04-21T16:18:56.275Z,8.13
2019-04-21T16:21:26.238Z,9.58
2019-04-21T16:24:00.437Z,10.50
2019-04-21T16:26:30.664Z,13.55
2019-04-21T16:29:00.031Z,15.28
2019-04-21T16:31:32.261Z,16.67
2019-04-21T16:34:01.395Z,13.88
2019-04-21T16:36:31.715Z,11.78
2019-04-21T16:39:02.094Z,8.90
2019-04-21T16:41:32.079Z,9.18
2019-04-21T16:44:02.908Z,9.48
2019-04-21T16:46:32.095Z,10.23
2019-04-21T16:49:02.007Z,11.78
2019-04-21T16:51:31.861Z,14.80
2019-04-21T16:54:03.878Z,15.95
2019-04-21T16:56:35.852Z,17.05
2019-04-21T16:59:10.562Z,19.37
2019-04-21T17:01:40.666Z,16.80
2019-04-21T17:04:13.948Z,13.72
2019-04-21T17:06:43.000Z,12.90
2019-04-21T17:09:12.675Z,11.10
2019-04-21T17:11:43.624Z,10.03
2019-04-21T17:14:34.259Z,9.13
2019-04-21T17:17:14.170Z,8.25
2019-04-21T17:19:22.280Z,7.90
2019-04-21T17:21:45.708Z,8.08
2019-04-21T17:24:16.607Z,7.12
2019-04-21T17:26:46.454Z,6.35
2019-04-21T17:29:16.851Z,7.05
2019-04-21T17:31:47.608Z,6.72
2019-04-21T17:34:23.212Z,6.65
2019-04-21T17:36:50.943Z,6.97
2019-04-21T17:39:20.769Z,6.85
2019-04-21T17:42:05.603Z,7.28
2019-04-21T17:44:25.920Z,7.65
2019-04-21T17:47:01.498Z,7.85
2019-04-21T17:49:25.948Z,7.90
2019-04-21T17:52:19.817Z,7.97
2019-04-21T17:55:14.003Z,9.10
2019-04-21T17:57:58.134Z,8.48
2019-04-21T18:00:51.812Z,9.03
2019-04-21T18:02:59.397Z,8.83
2019-04-21T18:05:31.941Z,9.00
2019-04-21T18:07:58.637Z,7.85
2019-04-21T18:10:30.677Z,7.62
2019-04-21T18:12:57.042Z,8.28
2019-04-21T18:15:37.182Z,7.62
2019-04-21T18:17:50.833Z,8.80
2019-04-21T18:20:21.895Z,7.72
2019-04-21T18:23:08.385Z,8.53
2019-04-21T18:25:47.398Z,8.93
2019-04-21T18:28:08.332Z,8.35
2019-04-21T18:30:48.543Z,8.10
2019-04-21T18:33:25.033Z,9.85
2019-04-21T18:36:00.687Z,8.95
2019-04-21T18:39:13.979Z,9.73
2019-04-21T18:41:23.550Z,9.80
2019-04-21T18:46:53.213Z,9.55
2019-04-21T18:49:06.559Z,10.72
2019-04-21T18:51:57.143Z,12.13
2019-04-21T18:54:37.704Z,14.70
2019-04-21T18:57:03.264Z,13.38
2019-04-21T18:59:34.097Z,16.00
2019-04-21T19:02:06.126Z,16.55
2019-04-21T19:04:33.861Z,14.60
2019-04-21T19:07:13.804Z,14.07
2019-04-21T19:10:09.656Z,11.95
2019-04-21T19:12:35.137Z,10.58
2019-04-21T19:14:56.314Z,9.65
2019-04-21T19:18:11.898Z,9.78
2019-04-21T19:20:00.845Z,9.05
2019-04-21T19:22:31.195Z,9.25
2019-04-21T19:24:59.506Z,8.53
2019-04-21T19:27:31.109Z,9.33
2019-04-21T19:30:12.245Z,9.45
2019-04-21T19:32:46.765Z,9.68
2019-04-21T19:34:52.413Z,9.88
2019-04-21T19:37:22.963Z,10.15
2019-04-21T19:40:03.590Z,11.70
2019-04-21T19:42:32.271Z,10.88
2019-04-21T19:45:13.740Z,11.30
2019-04-21T19:47:48.716Z,12.50
2019-04-21T19:50:26.493Z,11.70
2019-04-21T19:52:51.924Z,12.15
2019-04-21T19:55:18.117Z,12.13
2019-04-21T19:57:49.564Z,12.63
2019-04-21T20:00:24.326Z,12.10
2019-04-21T20:02:58.561Z,11.90
2019-04-21T20:05:36.180Z,12.65
2019-04-21T20:08:17.413Z,11.10
2019-04-21T20:10:55.098Z,12.25
2019-04-21T20:13:38.454Z,14.47
2019-04-21T20:15:59.702Z,14.05
2019-04-21T20:18:21.223Z,14.73
2019-04-21T20:20:43.837Z,13.60
2019-04-21T20:23:20.489Z,13.90
2019-04-21T20:25:54.366Z,16.62
2019-04-21T20:28:37.177Z,19.95
2019-04-21T20:31:13.224Z,15.10
2019-04-21T20:36:26.204Z,12.37
2019-04-21T20:38:42.248Z,11.97
2019-04-21T20:41:22.341Z,12.25
2019-04-21T20:44:06.119Z,13.95
2019-04-21T20:46:36.839Z,13.80
2019-04-21T20:49:02.818Z,14.55
2019-04-21T20:51:43.816Z,17.37
2019-04-21T20:54:15.814Z,12.50
2019-04-21T20:56:49.771Z,12.90
2019-04-21T20:59:19.735Z,13.22
2019-04-21T21:02:05.483Z,13.20
2019-04-21T21:04:32.673Z,11.22
2019-04-21T21:07:36.350Z,10.65
2019-04-21T21:10:00.116Z,9.10
2019-04-21T21:12:33.868Z,9.18
2019-04-21T21:14:49.985Z,8.13
2019-04-21T21:20:07.917Z,8.73
2019-04-21T21:22:39.321Z,10.10
2019-04-21T21:25:11.688Z,9.50
2019-04-21T21:27:36.742Z,8.95
2019-04-21T21:30:10.100Z,9.38
2019-04-21T21:32:37.286Z,8.48
2019-04-21T21:35:13.495Z,8.35
2019-04-21T21:37:49.018Z,7.72
2019-04-21T21:40:17.295Z,7.62
2019-04-21T21:42:35.333Z,7.22
2019-04-21T21:45:08.722Z,6.40
2019-04-21T21:47:54.696Z,6.35
2019-04-21T21:50:18.348Z,5.67
2019-04-21T21:52:52.204Z,6.58
2019-04-21T21:55:11.921Z,6.22
2019-04-21T21:57:48.699Z,6.25
2019-04-21T22:00:15.619Z,5.85
2019-04-21T22:02:51.100Z,6.80
2019-04-21T22:05:25.325Z,5.40
2019-04-21T22:07:51.930Z,6.05
2019-04-21T22:10:25.274Z,5.50
2019-04-21T22:13:02.464Z,6.35
2019-04-21T22:15:28.163Z,6.05
2019-04-21T22:18:16.747Z,5.85
2019-04-21T22:20:52.240Z,5.90
2019-04-21T22:23:03.992Z,5.65
2019-04-21T22:25:33.835Z,5.45
2019-04-21T22:28:02.044Z,5.78
2019-04-21T22:30:37.080Z,6.28
2019-04-21T22:33:06.976Z,5.28
2019-04-21T22:35:42.239Z,5.45
2019-04-21T22:38:21.146Z,5.37
2019-04-21T22:40:46.340Z,4.65
2019-04-21T22:43:16.750Z,5.33
2019-04-21T22:45:35.681Z,5.10
2019-04-21T22:48:13.473Z,4.70
2019-04-21T22:50:40.372Z,4.72
2019-04-21T22:53:13.775Z,4.50
2019-04-21T22:55:42.955Z,4.30
2019-04-21T22:58:17.089Z,4.85
2019-04-21T23:00:46.419Z,4.75
2019-04-21T23:03:19.293Z,4.80
2019-04-21T23:05:46.242Z,4.20
2019-04-21T23:08:15.157Z,4.80
2019-04-21T23:10:49.651Z,4.78
2019-04-21T23:13:18.276Z,4.87
2019-04-21T23:15:50.973Z,4.72
2019-04-21T23:18:30.592Z,4.33
2019-04-21T23:21:03.506Z,4.47
2019-04-21T23:23:42.703Z,4.42
2019-04-21T23:26:04.688Z,4.03
2019-04-21T23:28:40.488Z,4.10
2019-04-21T23:31:09.813Z,4.72
2019-04-21T23:33:23.982Z,4.25
2019-04-21T23:36:03.670Z,4.30
2019-04-21T23:38:36.838Z,4.22
2019-04-21T23:41:03.461Z,4.50
2019-04-21T23:43:32.756Z,4.35
2019-04-21T23:46:04.217Z,4.12
2019-04-21T23:48:41.296Z,4.33
2019-04-21T23:51:15.964Z,4.40
2019-04-21T23:53:37.431Z,4.00
2019-04-21T23:56:07.552Z,3.80
2019-04-21T23:58:38.520Z,4.67
